CheckWX is a tool to help pilots better visualize weather data.  It is not intended as a substitute for an official pre-flight weather briefing.

09:14:39 UTC

ETHC METAR
Celle Airport
Germany
Current

29 mins ago

ETHC 220846Z 29008KT 8000 -DZ BKN007 11/09 Q1016 GRN GRN
Observed
May-22 @ 08:46 UTC
Wind
  • 290° at 8 KTS
Visibility
7,998 meters
Flight Rules
IFR
Conditions
Light Drizzle
Cloud Levels
  • Broken at 700' AGL
Temperature
11°C / 52°F
Dewpoint
C / 48°F
Humidity
88%
Altimeter
30" Hg
Pressure
1015.92 hPa
Previous

55 mins ago

ETHC 220820Z 28009KT 5000 -DZ BR FEW004 BKN006 11/10 Q1016 YLO YLO BECMG GRN
Observed
May-22 @ 08:20 UTC
Wind
  • 280° at 9 KTS
Visibility
5,005 meters
Flight Rules
IFR
Conditions
Light Drizzle, Mist
Cloud Levels
  • Few at 400' AGL
  • Broken at 600' AGL
Temperature
11°C / 52°F
Dewpoint
10°C / 50°F
Humidity
94%
Altimeter
30" Hg
Pressure
1015.92 hPa
Previous

2 hours ago

ETHC 220720Z 27009KT 5000 -DZ BR BKN006 11/10 Q1015 YLO GRN TEMPO YLO
Observed
May-22 @ 07:20 UTC
Wind
  • 270° at 9 KTS
Visibility
5,005 meters
Flight Rules
IFR
Conditions
Light Drizzle, Mist
Cloud Levels
  • Broken at 600' AGL
Temperature
11°C / 52°F
Dewpoint
10°C / 50°F
Humidity
94%
Altimeter
29.97" Hg
Pressure
1014.92 hPa